createdAt,value
2023-05-07T00:01:46.306Z,18.70
2023-05-07T00:04:14.373Z,18.70
2023-05-07T00:06:41.258Z,18.80
2023-05-07T00:09:08.243Z,18.70
2023-05-07T00:11:36.375Z,18.70
2023-05-07T00:14:03.988Z,18.60
2023-05-07T00:16:31.068Z,18.60
2023-05-07T00:18:57.828Z,18.60
2023-05-07T00:21:27.390Z,18.60
2023-05-07T00:23:54.910Z,18.60
2023-05-07T00:26:21.908Z,18.60
2023-05-07T00:28:50.362Z,18.60
2023-05-07T00:31:17.083Z,18.60
2023-05-07T00:33:43.755Z,18.60
2023-05-07T00:36:10.662Z,18.60
2023-05-07T00:38:37.361Z,18.60
2023-05-07T00:41:04.226Z,18.60
2023-05-07T00:43:30.890Z,18.60
2023-05-07T00:45:57.762Z,18.60
2023-05-07T00:48:25.421Z,18.60
2023-05-07T00:50:52.764Z,18.60
2023-05-07T00:53:19.600Z,18.60
2023-05-07T00:55:46.428Z,18.60
2023-05-07T00:58:13.548Z,18.50
2023-05-07T01:00:40.165Z,18.50
2023-05-07T01:03:06.940Z,18.50
2023-05-07T01:05:34.383Z,18.50
2023-05-07T01:08:02.659Z,18.50
2023-05-07T01:10:31.497Z,18.40
2023-05-07T01:12:59.755Z,18.40
2023-05-07T01:15:26.650Z,18.40
2023-05-07T01:17:53.463Z,18.30
2023-05-07T01:20:29.664Z,18.30
2023-05-07T01:22:58.548Z,18.20
2023-05-07T01:25:25.811Z,18.20
2023-05-07T01:27:56.041Z,18.20
2023-05-07T01:30:27.934Z,18.20
2023-05-07T01:33:05.025Z,18.10
2023-05-07T01:35:39.755Z,18.10
2023-05-07T01:38:07.813Z,18.10
2023-05-07T01:40:35.490Z,18.00
2023-05-07T01:43:06.698Z,18.00
2023-05-07T01:45:35.854Z,17.90
2023-05-07T01:48:03.868Z,17.90
2023-05-07T01:50:32.434Z,17.90
2023-05-07T01:52:59.120Z,17.80
2023-05-07T01:55:25.920Z,17.80
2023-05-07T01:57:52.589Z,17.70
2023-05-07T02:00:19.945Z,17.70
2023-05-07T02:02:46.799Z,17.70
2023-05-07T02:05:25.235Z,17.60
2023-05-07T02:08:10.086Z,17.60
2023-05-07T02:10:37.767Z,17.50
2023-05-07T02:13:06.422Z,17.50
2023-05-07T02:15:33.221Z,17.40
2023-05-07T02:18:10.172Z,17.40
2023-05-07T02:20:38.110Z,17.40
2023-05-07T02:23:04.824Z,17.30
2023-05-07T02:25:31.915Z,17.30
2023-05-07T02:27:59.397Z,17.20
2023-05-07T02:30:39.338Z,17.20
2023-05-07T02:33:07.299Z,17.10
2023-05-07T02:35:34.010Z,17.10
2023-05-07T02:38:01.055Z,17.10
2023-05-07T02:40:27.748Z,17.00
2023-05-07T02:42:54.461Z,17.00
2023-05-07T02:45:21.240Z,17.00
2023-05-07T02:47:50.313Z,16.90
2023-05-07T02:50:17.201Z,16.90
2023-05-07T02:52:43.967Z,16.80
2023-05-07T02:55:11.485Z,16.80
2023-05-07T02:57:38.206Z,16.80
2023-05-07T03:00:17.378Z,16.70
2023-05-07T03:02:51.799Z,16.70
2023-05-07T03:05:19.092Z,16.70
2023-05-07T03:07:47.046Z,16.70
2023-05-07T03:10:14.558Z,16.60
2023-05-07T03:12:41.349Z,16.60
2023-05-07T03:15:11.409Z,16.50
2023-05-07T03:17:38.307Z,16.50
2023-05-07T03:20:05.851Z,16.50
2023-05-07T03:22:33.423Z,16.40
2023-05-07T03:25:00.599Z,16.40
2023-05-07T03:27:27.307Z,16.40
2023-05-07T03:29:55.023Z,16.40
2023-05-07T03:32:21.782Z,16.40
2023-05-07T03:34:48.527Z,16.30
2023-05-07T03:37:15.361Z,16.30
2023-05-07T03:39:43.341Z,16.30
2023-05-07T03:42:10.784Z,16.30
2023-05-07T03:44:38.312Z,16.30
2023-05-07T03:47:05.558Z,16.30
2023-05-07T03:49:32.905Z,16.30
2023-05-07T03:52:00.508Z,16.30
2023-05-07T03:54:27.441Z,16.20
2023-05-07T03:56:54.163Z,16.20
2023-05-07T03:59:21.652Z,16.20
2023-05-07T04:01:49.743Z,16.20
2023-05-07T04:04:18.946Z,16.20
2023-05-07T04:06:45.851Z,16.20
2023-05-07T04:09:13.260Z,16.20
2023-05-07T04:11:41.129Z,16.10
2023-05-07T04:14:10.043Z,16.10
2023-05-07T04:16:37.329Z,16.10
2023-05-07T04:19:04.605Z,16.10
2023-05-07T04:21:32.029Z,16.10
2023-05-07T04:23:59.565Z,16.10
2023-05-07T04:26:26.343Z,16.10
2023-05-07T04:28:53.112Z,16.10
2023-05-07T04:31:19.978Z,16.10
2023-05-07T04:33:52.519Z,16.10
2023-05-07T04:36:19.812Z,16.10
2023-05-07T04:38:58.996Z,16.00
2023-05-07T04:41:25.894Z,16.00
2023-05-07T04:43:52.709Z,16.00
2023-05-07T04:46:23.229Z,16.10
2023-05-07T04:48:50.292Z,16.00
2023-05-07T04:51:17.036Z,16.00
2023-05-07T04:53:44.122Z,16.10
2023-05-07T04:56:11.006Z,16.00
2023-05-07T04:58:43.262Z,16.10
2023-05-07T05:01:10.693Z,16.10
2023-05-07T05:03:40.273Z,16.10
2023-05-07T05:06:07.295Z,16.20
2023-05-07T05:08:35.120Z,16.20
2023-05-07T05:11:03.765Z,16.20
2023-05-07T05:13:32.605Z,16.20
2023-05-07T05:16:01.744Z,16.20
2023-05-07T05:18:30.570Z,16.20
2023-05-07T05:20:57.354Z,16.30
2023-05-07T05:23:24.357Z,16.30
2023-05-07T05:25:55.924Z,16.30
2023-05-07T05:28:23.276Z,16.30
2023-05-07T05:30:50.075Z,16.40
2023-05-07T05:33:17.864Z,16.40
2023-05-07T05:35:44.568Z,16.40
2023-05-07T05:38:12.882Z,16.50
2023-05-07T05:40:41.024Z,16.50
2023-05-07T05:43:08.108Z,16.60
2023-05-07T05:45:35.276Z,16.60
2023-05-07T05:48:01.925Z,16.70
2023-05-07T05:50:30.061Z,16.70
2023-05-07T05:52:57.615Z,16.70
2023-05-07T05:55:25.934Z,16.80
2023-05-07T05:57:52.648Z,16.80
2023-05-07T06:00:23.267Z,16.90
2023-05-07T06:02:56.266Z,16.90
2023-05-07T06:05:25.049Z,16.90
2023-05-07T06:07:54.329Z,16.90
2023-05-07T06:10:21.449Z,17.00
2023-05-07T06:12:48.300Z,17.00
2023-05-07T06:15:16.278Z,17.00
2023-05-07T06:17:43.348Z,17.00
2023-05-07T06:20:11.665Z,17.10
2023-05-07T06:22:39.823Z,17.10
2023-05-07T06:25:06.955Z,17.10
2023-05-07T06:27:33.815Z,17.10
2023-05-07T06:30:00.536Z,17.20
2023-05-07T06:32:27.414Z,17.20
2023-05-07T06:34:55.026Z,17.20
2023-05-07T06:37:21.973Z,17.20
2023-05-07T06:40:02.135Z,17.30
2023-05-07T06:42:30.974Z,17.30
2023-05-07T06:45:00.885Z,17.30
2023-05-07T06:47:30.963Z,17.40
2023-05-07T06:49:58.783Z,17.40
2023-05-07T06:52:29.424Z,17.40
2023-05-07T06:54:56.447Z,17.50
2023-05-07T06:57:25.638Z,17.50
2023-05-07T06:59:52.457Z,17.50
2023-05-07T07:02:20.095Z,17.70
2023-05-07T07:04:49.260Z,17.80
2023-05-07T07:07:15.985Z,17.90
2023-05-07T07:09:45.092Z,18.00
2023-05-07T07:12:14.171Z,18.10
2023-05-07T07:14:41.857Z,18.30
2023-05-07T07:17:08.687Z,18.40
2023-05-07T07:19:36.370Z,18.50
2023-05-07T07:22:04.270Z,18.60
2023-05-07T07:24:31.556Z,18.80
2023-05-07T07:27:01.799Z,18.90
2023-05-07T07:29:28.906Z,19.00
2023-05-07T07:31:56.205Z,19.20
2023-05-07T07:34:23.223Z,19.30
2023-05-07T07:36:50.636Z,19.40
2023-05-07T07:39:19.095Z,19.50
2023-05-07T07:41:47.895Z,19.60
2023-05-07T07:44:16.516Z,19.70
2023-05-07T07:46:47.272Z,19.70
2023-05-07T07:49:14.235Z,19.80
2023-05-07T07:51:41.680Z,19.80
2023-05-07T07:54:10.165Z,19.80
2023-05-07T07:56:37.349Z,19.80
2023-05-07T07:59:05.902Z,19.90
2023-05-07T08:01:33.933Z,19.90
2023-05-07T08:04:01.445Z,19.90
2023-05-07T08:06:30.808Z,19.90
2023-05-07T08:08:57.617Z,19.90
2023-05-07T08:11:24.544Z,20.00
2023-05-07T08:13:52.923Z,20.00
2023-05-07T08:16:20.348Z,20.00
2023-05-07T08:18:48.222Z,20.00
2023-05-07T08:21:14.976Z,20.00
2023-05-07T08:23:42.060Z,20.10
2023-05-07T08:26:09.875Z,20.10
2023-05-07T08:28:37.997Z,20.20
2023-05-07T08:31:04.822Z,20.20
2023-05-07T08:33:35.661Z,20.30
2023-05-07T08:36:02.332Z,20.30
2023-05-07T08:38:29.946Z,20.40
2023-05-07T08:40:56.747Z,20.40
2023-05-07T08:43:27.181Z,20.40
2023-05-07T08:45:56.261Z,20.50
2023-05-07T08:48:30.642Z,20.50
2023-05-07T08:51:06.176Z,20.50
2023-05-07T08:53:33.939Z,20.60
2023-05-07T08:56:00.990Z,20.60
2023-05-07T08:58:29.518Z,20.70
2023-05-07T09:00:57.067Z,20.70
2023-05-07T09:03:24.484Z,20.70
2023-05-07T09:05:53.795Z,20.80
2023-05-07T09:08:26.024Z,20.80
2023-05-07T09:10:53.773Z,20.90
2023-05-07T09:13:21.392Z,21.00
2023-05-07T09:15:48.370Z,21.20
2023-05-07T09:18:16.590Z,21.20
2023-05-07T09:20:44.500Z,21.30
2023-05-07T09:23:11.385Z,21.40
2023-05-07T09:25:38.485Z,21.40
2023-05-07T09:28:12.967Z,21.50
2023-05-07T09:30:39.667Z,21.70
2023-05-07T09:33:09.612Z,21.80
2023-05-07T09:35:40.867Z,21.90
2023-05-07T09:38:12.326Z,22.00
2023-05-07T09:40:39.001Z,22.20
2023-05-07T09:43:12.756Z,22.30
2023-05-07T09:45:44.052Z,22.40
2023-05-07T09:48:12.747Z,22.60
2023-05-07T09:50:52.413Z,22.70
2023-05-07T09:53:23.522Z,22.80
2023-05-07T09:55:51.890Z,23.00
2023-05-07T09:58:19.865Z,23.20
2023-05-07T10:00:47.984Z,23.30
2023-05-07T10:03:17.007Z,23.50
2023-05-07T10:05:52.617Z,23.70
2023-05-07T10:08:21.223Z,23.90
2023-05-07T10:10:51.104Z,24.20
2023-05-07T10:13:22.814Z,24.60
2023-05-07T10:15:53.154Z,24.70
2023-05-07T10:18:30.329Z,25.00
2023-05-07T10:21:07.851Z,25.20
2023-05-07T10:23:35.646Z,25.60
2023-05-07T10:26:06.267Z,25.80
2023-05-07T10:28:41.688Z,25.90
2023-05-07T10:31:37.957Z,26.10
2023-05-07T10:34:11.627Z,26.20
2023-05-07T10:36:40.100Z,26.20
2023-05-07T10:39:07.658Z,26.20
2023-05-07T10:41:35.225Z,26.20
2023-05-07T10:44:03.072Z,26.10
2023-05-07T10:46:36.318Z,26.00
2023-05-07T10:49:11.145Z,25.90
2023-05-07T10:52:24.240Z,25.80
2023-05-07T10:55:26.473Z,25.70
2023-05-07T11:01:00.911Z,25.40
2023-05-07T11:03:33.936Z,25.30
2023-05-07T11:06:12.329Z,25.10
2023-05-07T11:08:57.440Z,25.00
2023-05-07T11:12:00.729Z,24.90
2023-05-07T11:14:46.706Z,24.80
2023-05-07T11:17:18.113Z,24.70
2023-05-07T11:19:54.424Z,24.60
2023-05-07T11:22:40.828Z,24.50
2023-05-07T11:25:26.659Z,24.50
2023-05-07T11:28:06.532Z,24.40
2023-05-07T11:30:33.846Z,24.40
2023-05-07T11:33:01.003Z,24.30
2023-05-07T11:35:28.172Z,24.30
2023-05-07T11:38:01.353Z,24.30
2023-05-07T11:40:29.930Z,24.30
2023-05-07T11:42:56.590Z,24.20
2023-05-07T11:45:26.846Z,24.30
2023-05-07T11:47:53.665Z,24.30
2023-05-07T11:50:20.634Z,24.30
2023-05-07T11:52:53.733Z,24.30
2023-05-07T11:55:20.780Z,24.30
2023-05-07T11:57:48.627Z,24.20
2023-05-07T12:00:17.362Z,24.20
2023-05-07T12:02:46.592Z,24.20
2023-05-07T12:05:13.669Z,24.20
2023-05-07T12:07:40.798Z,24.20
2023-05-07T12:10:08.101Z,24.20
2023-05-07T12:12:42.876Z,24.10
2023-05-07T12:15:10.433Z,24.10
2023-05-07T12:17:37.745Z,24.10
2023-05-07T12:20:05.998Z,24.00
2023-05-07T12:22:32.870Z,24.00
2023-05-07T12:24:59.972Z,24.00
2023-05-07T12:27:27.220Z,24.00
2023-05-07T12:29:53.892Z,24.00
2023-05-07T12:32:22.250Z,24.00
2023-05-07T12:34:52.704Z,24.10
2023-05-07T12:37:27.921Z,24.10
2023-05-07T12:40:09.931Z,24.20
2023-05-07T12:42:38.158Z,24.20
2023-05-07T12:45:17.522Z,24.30
2023-05-07T12:47:46.178Z,24.30
2023-05-07T12:50:14.989Z,24.30
2023-05-07T12:52:42.025Z,24.40
2023-05-07T12:55:09.931Z,24.40
2023-05-07T12:57:41.482Z,24.40
2023-05-07T13:00:09.866Z,24.40
2023-05-07T13:02:40.775Z,24.40
2023-05-07T13:05:08.413Z,24.40
2023-05-07T13:07:35.445Z,24.50
2023-05-07T13:10:02.223Z,24.40
2023-05-07T13:12:28.985Z,24.40
2023-05-07T13:14:55.707Z,24.50
2023-05-07T13:17:22.448Z,24.40
2023-05-07T13:19:49.249Z,24.40
2023-05-07T13:22:15.917Z,24.50
2023-05-07T13:24:44.566Z,24.40
2023-05-07T13:27:11.310Z,24.40
2023-05-07T13:29:37.953Z,24.40
2023-05-07T13:32:04.947Z,24.40
2023-05-07T13:34:31.662Z,24.40
2023-05-07T13:36:58.369Z,24.40
2023-05-07T13:39:25.045Z,24.40
2023-05-07T13:41:51.706Z,24.40
2023-05-07T13:44:18.408Z,24.40
2023-05-07T13:46:45.089Z,24.40
2023-05-07T13:49:13.396Z,24.40
2023-05-07T13:51:40.004Z,24.50
2023-05-07T13:54:06.826Z,24.40
2023-05-07T13:56:33.524Z,24.40
2023-05-07T13:59:01.057Z,24.40
2023-05-07T14:01:28.342Z,24.40
2023-05-07T14:03:56.367Z,24.40
2023-05-07T14:06:23.090Z,24.30
2023-05-07T14:08:50.160Z,24.30
2023-05-07T14:11:16.993Z,24.30
2023-05-07T14:13:43.692Z,24.30
2023-05-07T14:16:10.376Z,24.30
2023-05-07T14:18:38.013Z,24.30
2023-05-07T14:21:07.229Z,24.30
2023-05-07T14:23:33.916Z,24.30
2023-05-07T14:26:00.724Z,24.30
2023-05-07T14:28:27.390Z,24.30
2023-05-07T14:30:54.088Z,24.40
2023-05-07T14:33:20.793Z,24.30
2023-05-07T14:35:49.709Z,24.40
2023-05-07T14:38:16.634Z,24.40
2023-05-07T14:40:43.530Z,24.40
2023-05-07T14:43:10.243Z,24.40
2023-05-07T14:45:36.877Z,24.40
2023-05-07T14:48:04.032Z,24.40
2023-05-07T14:50:31.014Z,24.50
2023-05-07T14:52:57.658Z,24.50
2023-05-07T14:55:24.305Z,24.50
2023-05-07T14:57:51.004Z,24.60
2023-05-07T15:00:17.841Z,24.50
2023-05-07T15:02:44.632Z,24.40
2023-05-07T15:05:11.676Z,24.50
2023-05-07T15:07:38.573Z,24.50
2023-05-07T15:10:05.766Z,24.40
2023-05-07T15:12:32.379Z,24.40
2023-05-07T15:14:59.054Z,24.40
2023-05-07T15:17:25.902Z,24.30
2023-05-07T15:19:54.384Z,24.30
2023-05-07T15:22:22.468Z,24.30
2023-05-07T15:24:49.321Z,24.20
2023-05-07T15:27:17.861Z,24.20
2023-05-07T15:29:44.483Z,24.10
2023-05-07T15:32:11.373Z,24.10
2023-05-07T15:34:38.185Z,24.00
2023-05-07T15:37:04.885Z,24.00
2023-05-07T15:39:31.977Z,23.90
2023-05-07T15:41:58.628Z,23.90
2023-05-07T15:44:29.566Z,23.90
2023-05-07T15:46:56.226Z,23.80
2023-05-07T15:49:23.105Z,23.70
2023-05-07T15:51:51.641Z,23.70
2023-05-07T15:54:20.878Z,23.60
2023-05-07T15:56:47.915Z,23.50
2023-05-07T15:59:16.358Z,23.50
2023-05-07T16:01:43.482Z,23.40
2023-05-07T16:04:10.704Z,23.40
2023-05-07T16:06:37.429Z,23.30
2023-05-07T16:09:04.150Z,23.30
2023-05-07T16:11:30.818Z,23.20
2023-05-07T16:13:57.550Z,23.20
2023-05-07T16:16:26.598Z,23.10
2023-05-07T16:18:53.279Z,23.10
2023-05-07T16:21:19.972Z,23.00
2023-05-07T16:23:46.899Z,23.00
2023-05-07T16:26:14.454Z,23.00
2023-05-07T16:28:41.195Z,22.90
2023-05-07T16:31:08.692Z,22.90
2023-05-07T16:33:36.093Z,22.90
2023-05-07T16:36:03.381Z,22.80
2023-05-07T16:38:33.029Z,22.80
2023-05-07T16:41:00.195Z,22.80
2023-05-07T16:43:27.276Z,22.70
2023-05-07T16:45:54.029Z,22.70
2023-05-07T16:48:21.332Z,22.70
2023-05-07T16:50:48.127Z,22.70
2023-05-07T16:53:14.870Z,22.60
2023-05-07T16:55:41.625Z,22.60
2023-05-07T16:58:10.101Z,22.60
2023-05-07T17:00:48.998Z,22.50
2023-05-07T17:03:17.440Z,22.50
2023-05-07T17:05:44.489Z,22.40
2023-05-07T17:08:11.125Z,22.40
2023-05-07T17:10:37.814Z,22.30
2023-05-07T17:13:04.549Z,22.20
2023-05-07T17:15:31.365Z,22.20
2023-05-07T17:17:58.174Z,22.20
2023-05-07T17:20:25.735Z,22.10
2023-05-07T17:22:52.539Z,22.00
2023-05-07T17:25:19.432Z,22.00
2023-05-07T17:27:46.168Z,22.00
2023-05-07T17:30:13.812Z,22.00
2023-05-07T17:32:41.560Z,21.90
2023-05-07T17:35:08.831Z,21.80
2023-05-07T17:37:35.548Z,21.80
2023-05-07T17:40:03.053Z,21.70
2023-05-07T17:42:31.837Z,21.70
2023-05-07T17:44:58.540Z,21.60
2023-05-07T17:47:25.384Z,21.60
2023-05-07T17:49:52.045Z,21.50
2023-05-07T17:52:18.716Z,21.50
2023-05-07T17:54:45.556Z,21.40
2023-05-07T17:57:12.343Z,21.40
2023-05-07T17:59:40.055Z,21.30
2023-05-07T18:02:06.831Z,21.30
2023-05-07T18:04:33.583Z,21.30
2023-05-07T18:07:00.337Z,21.20
2023-05-07T18:09:27.032Z,21.20
2023-05-07T18:11:53.931Z,21.10
2023-05-07T18:14:24.262Z,21.10
2023-05-07T18:16:51.365Z,21.00
2023-05-07T18:19:18.309Z,21.00
2023-05-07T18:21:44.931Z,21.00
2023-05-07T18:24:11.722Z,20.90
2023-05-07T18:26:38.413Z,20.90
2023-05-07T18:29:05.182Z,20.90
2023-05-07T18:31:31.871Z,20.80
2023-05-07T18:33:58.615Z,20.80
2023-05-07T18:36:25.417Z,20.70
2023-05-07T18:38:56.465Z,20.70
2023-05-07T18:41:23.201Z,20.80
2023-05-07T18:43:49.824Z,20.70
2023-05-07T18:46:16.516Z,20.60
2023-05-07T18:48:43.299Z,20.60
2023-05-07T18:51:12.603Z,20.50
2023-05-07T18:53:40.245Z,20.50
2023-05-07T18:56:07.429Z,20.50
2023-05-07T18:58:34.715Z,20.50
2023-05-07T19:01:01.756Z,20.50
2023-05-07T19:03:29.816Z,20.40
2023-05-07T19:05:56.512Z,20.30
2023-05-07T19:08:23.217Z,20.30
2023-05-07T19:10:49.884Z,20.30
2023-05-07T19:13:16.847Z,20.30
2023-05-07T19:15:43.595Z,20.20
2023-05-07T19:18:11.277Z,20.20
2023-05-07T19:20:37.927Z,20.20
2023-05-07T19:23:06.726Z,20.10
2023-05-07T19:25:33.743Z,20.10
2023-05-07T19:28:00.482Z,20.10
2023-05-07T19:30:27.181Z,20.10
2023-05-07T19:32:53.885Z,20.00
2023-05-07T19:35:20.646Z,20.00
2023-05-07T19:37:47.489Z,20.00
2023-05-07T19:40:14.784Z,20.00
2023-05-07T19:42:41.472Z,19.90
2023-05-07T19:45:08.579Z,19.90
2023-05-07T19:47:35.324Z,19.90
2023-05-07T19:50:02.088Z,19.80
2023-05-07T19:52:28.755Z,19.80
2023-05-07T19:54:56.026Z,19.80
2023-05-07T19:57:22.831Z,19.80
2023-05-07T19:59:49.469Z,19.80
2023-05-07T20:02:16.531Z,19.70
2023-05-07T20:04:43.350Z,19.70
2023-05-07T20:07:10.133Z,19.70
2023-05-07T20:09:36.796Z,19.70
2023-05-07T20:12:03.726Z,19.70
2023-05-07T20:14:30.439Z,19.70
2023-05-07T20:16:57.126Z,19.80
2023-05-07T20:19:23.797Z,19.60
2023-05-07T20:21:50.522Z,19.60
2023-05-07T20:24:19.147Z,19.60
2023-05-07T20:26:46.622Z,19.50
2023-05-07T20:29:13.381Z,19.50
2023-05-07T20:31:40.161Z,19.50
2023-05-07T20:34:07.292Z,19.50
2023-05-07T20:36:34.187Z,19.50
2023-05-07T20:39:00.869Z,19.40
2023-05-07T20:41:27.690Z,19.40
2023-05-07T20:43:54.414Z,19.40
2023-05-07T20:46:22.427Z,19.40
2023-05-07T20:48:49.745Z,19.40
2023-05-07T20:51:16.499Z,19.30
2023-05-07T20:53:47.943Z,19.30
2023-05-07T20:56:15.318Z,19.30
2023-05-07T20:58:42.023Z,19.30
2023-05-07T21:01:08.786Z,19.30
2023-05-07T21:03:35.580Z,19.20
2023-05-07T21:06:03.016Z,19.20
2023-05-07T21:08:30.341Z,19.20
2023-05-07T21:10:57.312Z,19.10
2023-05-07T21:13:24.132Z,19.10
2023-05-07T21:15:50.994Z,19.10
2023-05-07T21:18:18.830Z,19.10
2023-05-07T21:20:45.618Z,19.00
2023-05-07T21:23:12.276Z,19.00
2023-05-07T21:25:39.346Z,18.90
2023-05-07T21:28:07.781Z,18.90
2023-05-07T21:30:34.949Z,18.90
2023-05-07T21:33:01.735Z,18.80
2023-05-07T21:35:28.609Z,18.80
2023-05-07T21:37:55.425Z,18.80
2023-05-07T21:40:22.080Z,18.70
2023-05-07T21:42:48.741Z,18.70
2023-05-07T21:45:15.488Z,18.70
2023-05-07T21:47:42.184Z,18.60
2023-05-07T21:50:09.337Z,18.60
2023-05-07T21:52:36.348Z,18.60
2023-05-07T21:55:03.655Z,18.50
2023-05-07T21:57:30.551Z,18.50
2023-05-07T21:59:57.284Z,18.50
2023-05-07T22:02:24.088Z,18.50
2023-05-07T22:04:50.883Z,18.40
2023-05-07T22:07:17.563Z,18.40
2023-05-07T22:09:44.215Z,18.30
2023-05-07T22:12:11.501Z,18.30
2023-05-07T22:14:38.230Z,18.30
2023-05-07T22:17:04.926Z,18.20
2023-05-07T22:19:31.621Z,18.20
2023-05-07T22:21:58.325Z,18.10
2023-05-07T22:24:25.030Z,18.10
2023-05-07T22:26:51.714Z,18.00
2023-05-07T22:29:18.402Z,18.00
2023-05-07T22:31:45.535Z,18.00
2023-05-07T22:34:12.218Z,17.90
2023-05-07T22:36:38.953Z,17.90
2023-05-07T22:39:07.412Z,17.80
2023-05-07T22:41:34.293Z,17.80
2023-05-07T22:44:00.962Z,17.80
2023-05-07T22:46:27.846Z,17.70
2023-05-07T22:48:54.684Z,17.70
2023-05-07T22:51:21.642Z,17.70
2023-05-07T22:53:48.302Z,17.60
2023-05-07T22:56:15.652Z,17.60
2023-05-07T22:58:42.364Z,17.60
2023-05-07T23:01:16.419Z,17.50
2023-05-07T23:03:43.279Z,17.50
2023-05-07T23:06:10.522Z,17.50
2023-05-07T23:08:37.234Z,17.50
2023-05-07T23:11:03.980Z,17.40
2023-05-07T23:13:30.698Z,17.40
2023-05-07T23:15:58.842Z,17.40
2023-05-07T23:18:27.919Z,17.40
2023-05-07T23:20:54.861Z,17.40
2023-05-07T23:23:22.020Z,17.40
2023-05-07T23:25:52.317Z,17.40
2023-05-07T23:28:19.062Z,17.30
2023-05-07T23:30:45.796Z,17.30
2023-05-07T23:33:12.503Z,17.30
2023-05-07T23:35:39.164Z,17.30
2023-05-07T23:38:05.825Z,17.30
2023-05-07T23:40:32.527Z,17.20
2023-05-07T23:42:59.233Z,17.30
2023-05-07T23:45:26.257Z,17.30
2023-05-07T23:47:52.954Z,17.30
2023-05-07T23:50:19.657Z,17.20
2023-05-07T23:52:46.350Z,17.10
2023-05-07T23:55:13.758Z,17.10
2023-05-07T23:57:40.429Z,17.10
